Time;durP1;ratioP1;P1;durP2;ratioP2;P2;SDS_P1;SDS_P2;PMS_P1;PMS_P2;Temp;Humidity;BMP_temperature;BMP_pressure;BME280_temperature;BME280_humidity;BME280_pressure;Samples;Min_cycle;Max_cycle;Signal;HPM_P1;HPM_P2
2023/10/08 00:02:22;;;;;;;;;;;13.20;99.90;;;;;;5001017;28;19995;-93
2023/10/08 00:04:51;;;;;;;;;;;13.20;99.90;;;;;;4998985;28;19917;-94
2023/10/08 00:07:21;;;;;;;;;;;13.20;99.90;;;;;;4995827;28;20281;-94
2023/10/08 00:09:50;;;;;;;;;;;13.20;99.90;;;;;;4992771;28;19928;-93
2023/10/08 00:12:17;;;;;;;;;;;13.20;99.90;;;;;;4995335;28;20668;-94
2023/10/08 00:14:44;;;;;;;;;;;13.20;99.90;;;;;;4980785;28;19940;-93
2023/10/08 00:17:10;;;;;;;;;;;13.20;99.90;;;;;;4997307;28;19959;-93
2023/10/08 00:19:37;;;;;;;;;;;13.20;99.90;;;;;;4996844;28;20353;-93
2023/10/08 00:22:06;;;;;;;;;;;13.20;99.90;;;;;;4990923;28;19960;-93
2023/10/08 00:24:33;;;;;;;;;;;13.10;99.90;;;;;;4964332;28;20320;-93
2023/10/08 00:27:00;;;;;;;;;;;13.20;99.90;;;;;;4972295;28;20435;-93
2023/10/08 00:29:26;;;;;;;;;;;13.00;99.90;;;;;;5006668;28;19917;-93
2023/10/08 00:31:52;;;;;;;;;;;13.20;99.90;;;;;;4995511;28;20376;-93
2023/10/08 00:34:19;;;;;;;;;;;13.20;99.90;;;;;;4979236;28;19928;-93
2023/10/08 00:36:48;;;;;;;;;;;13.10;99.90;;;;;;4994233;28;19917;-92
2023/10/08 00:39:16;;;;;;;;;;;13.30;99.90;;;;;;4972369;28;19918;-93
2023/10/08 00:41:43;;;;;;;;;;;13.20;99.90;;;;;;4989259;28;19936;-93
2023/10/08 00:44:13;;;;;;;;;;;13.20;99.90;;;;;;4977526;28;19917;-92
2023/10/08 00:46:47;;;;;;;;;;;13.20;99.90;;;;;;4973685;28;20327;-93
2023/10/08 00:51:56;;;;;;;;;;;13.20;99.90;;;;;;4996329;28;19917;-93
2023/10/08 00:54:24;;;;;;;;;;;13.20;99.90;;;;;;4981552;28;19925;-93
2023/10/08 00:56:57;;;;;;;;;;;13.20;99.90;;;;;;5000262;28;19920;-93
2023/10/08 00:59:23;;;;;;;;;;;13.20;99.90;;;;;;4982867;28;20383;-94
2023/10/08 01:01:58;;;;;;;;;;;13.20;99.90;;;;;;4996401;28;19917;-93
2023/10/08 01:04:27;;;;;;;;;;;13.20;99.90;;;;;;4993810;28;20364;-94
2023/10/08 01:06:58;;;;;;;;;;;13.20;99.90;;;;;;4992446;28;19917;-93
2023/10/08 01:09:31;;;;;;;;;;;13.20;99.90;;;;;;4986508;28;20040;-93
2023/10/08 01:12:12;;;;;;;;;;;13.20;99.90;;;;;;5006459;28;19999;-92
2023/10/08 01:14:42;;;;;;;;;;;13.20;99.90;;;;;;5000830;28;19970;-93
2023/10/08 01:17:08;;;;;;;;;;;13.20;99.90;;;;;;4983777;28;20610;-94
2023/10/08 01:19:39;;;;;;;;;;;13.20;99.90;;;;;;5002310;28;19999;-93
2023/10/08 01:22:08;;;;;;;;;;;13.20;99.90;;;;;;4987225;28;19968;-94
2023/10/08 01:24:36;;;;;;;;;;;13.20;99.90;;;;;;5003622;28;19917;-93
2023/10/08 01:27:09;;;;;;;;;;;13.30;99.90;;;;;;4999037;28;19948;-93
2023/10/08 01:29:36;;;;;;;;;;;13.20;99.90;;;;;;4988082;28;19924;-93
2023/10/08 01:32:02;;;;;;;;;;;13.20;99.90;;;;;;4999818;28;19928;-93
2023/10/08 01:34:30;;;;;;;;;;;13.90;99.90;;;;;;4976542;28;19921;-93
2023/10/08 01:37:01;;;;;;;;;;;12.50;99.90;;;;;;4989476;28;19924;-94
2023/10/08 01:39:27;;;;;;;;;;;13.20;99.90;;;;;;4993665;28;19917;-93
2023/10/08 01:41:53;;;;;;;;;;;13.10;99.90;;;;;;4999391;28;19917;-93
2023/10/08 01:44:18;;;;;;;;;;;13.20;99.90;;;;;;4991578;28;19917;-94
2023/10/08 01:46:45;;;;;;;;;;;13.20;99.90;;;;;;4998361;28;20605;-93
2023/10/08 01:49:15;;;;;;;;;;;13.20;99.90;;;;;;4984147;28;20360;-93
2023/10/08 01:51:49;;;;;;;;;;;13.20;99.90;;;;;;5007900;28;19928;-93
2023/10/08 01:54:17;;;;;;;;;;;13.10;99.90;;;;;;4994172;28;20043;-93
2023/10/08 01:56:43;;;;;;;;;;;12.70;99.90;;;;;;5005114;28;19931;-94
2023/10/08 01:59:10;;;;;;;;;;;13.10;99.90;;;;;;5008231;28;19916;-93
2023/10/08 02:01:36;;;;;;;;;;;13.10;99.90;;;;;;4999202;28;19924;-93
2023/10/08 02:04:02;;;;;;;;;;;13.10;99.90;;;;;;4999580;28;20387;-94
2023/10/08 02:06:30;;;;;;;;;;;13.20;99.90;;;;;;4983380;28;19991;-94
2023/10/08 02:08:56;;;;;;;;;;;12.50;99.90;;;;;;5022077;28;19921;-93
2023/10/08 02:11:27;;;;;;;;;;;13.10;99.90;;;;;;4998409;28;20383;-93
2023/10/08 02:13:53;;;;;;;;;;;13.10;99.90;;;;;;4998167;28;20353;-93
2023/10/08 02:16:22;;;;;;;;;;;13.10;99.90;;;;;;4998198;28;19924;-93
2023/10/08 02:18:49;;;;;;;;;;;13.10;99.90;;;;;;4998062;28;19924;-94
2023/10/08 02:21:15;;;;;;;;;;;13.20;99.90;;;;;;4985725;28;20008;-93
2023/10/08 02:23:43;;;;;;;;;;;12.50;99.90;;;;;;4984987;28;20460;-93
2023/10/08 02:26:09;;;;;;;;;;;13.20;99.90;;;;;;4986614;28;19924;-93
2023/10/08 02:28:37;;;;;;;;;;;13.10;99.90;;;;;;5001455;28;19941;-93
2023/10/08 02:31:03;;;;;;;;;;;13.10;99.90;;;;;;4990914;28;19917;-94
2023/10/08 02:33:30;;;;;;;;;;;13.20;99.90;;;;;;5004743;28;19928;-93
2023/10/08 02:35:55;;;;;;;;;;;13.20;99.90;;;;;;4985971;28;19917;-93
2023/10/08 02:38:22;;;;;;;;;;;13.10;99.90;;;;;;5003415;28;19917;-93
2023/10/08 02:40:48;;;;;;;;;;;13.20;99.90;;;;;;4999130;28;20000;-93
2023/10/08 02:43:15;;;;;;;;;;;13.10;99.90;;;;;;5002434;28;19987;-93
2023/10/08 02:45:41;;;;;;;;;;;13.20;99.90;;;;;;5007935;28;20311;-94
2023/10/08 02:48:13;;;;;;;;;;;13.20;99.90;;;;;;5003990;28;20357;-94
2023/10/08 02:50:42;;;;;;;;;;;13.20;99.90;;;;;;4983169;28;19917;-94
2023/10/08 02:53:11;;;;;;;;;;;13.20;99.90;;;;;;5000876;28;19947;-93
2023/10/08 02:55:42;;;;;;;;;;;13.20;99.90;;;;;;4996119;28;19921;-94
2023/10/08 02:58:11;;;;;;;;;;;13.10;99.90;;;;;;5006428;28;19966;-93
2023/10/08 03:00:40;;;;;;;;;;;13.20;99.90;;;;;;4982669;28;19986;-93
2023/10/08 03:03:10;;;;;;;;;;;13.20;99.90;;;;;;4991487;28;19917;-92
2023/10/08 03:05:35;;;;;;;;;;;13.10;99.90;;;;;;4988989;28;19917;-93
2023/10/08 03:08:02;;;;;;;;;;;12.50;99.90;;;;;;5001710;28;19998;-94
2023/10/08 03:10:33;;;;;;;;;;;13.20;99.90;;;;;;4998457;28;19922;-93
2023/10/08 03:13:04;;;;;;;;;;;13.20;99.90;;;;;;5001261;28;19924;-93
2023/10/08 03:15:30;;;;;;;;;;;13.20;99.90;;;;;;4998367;28;19925;-94
2023/10/08 03:18:10;;;;;;;;;;;13.20;99.90;;;;;;4999224;28;20370;-93
2023/10/08 03:20:42;;;;;;;;;;;13.20;99.90;;;;;;4999808;28;20031;-94
2023/10/08 03:23:51;;;;;;;;;;;13.20;99.90;;;;;;4995533;28;20075;-93
2023/10/08 03:26:01;;;;;;;;;;;13.20;99.90;;;;;;5006901;28;19917;-94
2023/10/08 03:28:28;;;;;;;;;;;13.20;99.90;;;;;;4986323;28;20365;-94
2023/10/08 03:31:02;;;;;;;;;;;13.20;99.90;;;;;;5001313;28;19917;-93
2023/10/08 03:33:29;;;;;;;;;;;13.10;99.90;;;;;;4996257;28;19925;-93
2023/10/08 03:35:55;;;;;;;;;;;13.20;99.90;;;;;;5009188;28;19971;-94
2023/10/08 03:38:28;;;;;;;;;;;13.20;99.90;;;;;;4997644;28;19921;-93
2023/10/08 03:40:58;;;;;;;;;;;13.10;99.90;;;;;;4994521;28;19916;-94
2023/10/08 03:43:33;;;;;;;;;;;13.10;99.90;;;;;;4988968;28;19964;-93
2023/10/08 03:46:05;;;;;;;;;;;13.20;99.90;;;;;;4994755;28;19921;-93
2023/10/08 03:48:36;;;;;;;;;;;13.20;99.90;;;;;;4981413;28;19934;-93
2023/10/08 03:51:06;;;;;;;;;;;13.10;99.90;;;;;;4999743;28;19955;-93
2023/10/08 03:53:42;;;;;;;;;;;13.10;99.90;;;;;;4985026;28;19948;-93
2023/10/08 03:56:08;;;;;;;;;;;13.10;99.90;;;;;;4984715;28;19917;-93
2023/10/08 03:58:40;;;;;;;;;;;13.10;99.90;;;;;;5004706;28;19944;-93
2023/10/08 04:01:10;;;;;;;;;;;13.10;99.90;;;;;;4991203;28;19917;-94
2023/10/08 04:03:57;;;;;;;;;;;12.70;99.90;;;;;;4988350;28;19917;-93
2023/10/08 04:06:28;;;;;;;;;;;13.10;99.90;;;;;;5013902;28;19917;-93
2023/10/08 04:11:35;;;;;;;;;;;13.00;99.90;;;;;;4986229;28;20017;-93
2023/10/08 04:14:02;;;;;;;;;;;13.10;99.90;;;;;;4964757;28;19974;-93
2023/10/08 04:16:28;;;;;;;;;;;13.00;99.90;;;;;;4965162;28;19917;-94
2023/10/08 04:18:55;;;;;;;;;;;13.00;99.90;;;;;;4964870;28;19917;-93
2023/10/08 04:21:27;;;;;;;;;;;13.00;99.90;;;;;;4963530;28;19918;-93
2023/10/08 04:23:53;;;;;;;;;;;13.00;99.90;;;;;;4981971;28;20000;-93
2023/10/08 04:26:23;;;;;;;;;;;13.00;99.90;;;;;;4984731;28;19925;-93
2023/10/08 04:29:02;;;;;;;;;;;12.90;99.90;;;;;;4979627;28;19977;-93
2023/10/08 04:31:37;;;;;;;;;;;12.90;99.90;;;;;;4965381;28;19983;-93
2023/10/08 04:34:22;;;;;;;;;;;13.00;99.90;;;;;;4970933;28;20504;-93
2023/10/08 04:36:54;;;;;;;;;;;13.00;99.90;;;;;;4979082;28;19997;-93
2023/10/08 04:39:32;;;;;;;;;;;12.90;99.90;;;;;;4976369;28;19918;-93
2023/10/08 04:41:59;;;;;;;;;;;12.90;99.90;;;;;;4975800;28;19955;-93
2023/10/08 04:44:25;;;;;;;;;;;12.90;99.90;;;;;;4988441;28;19952;-93
2023/10/08 04:46:52;;;;;;;;;;;12.90;99.90;;;;;;4984847;28;20063;-93
2023/10/08 04:49:28;;;;;;;;;;;12.90;99.90;;;;;;4971726;28;19932;-93
2023/10/08 04:51:56;;;;;;;;;;;12.90;99.90;;;;;;4971760;28;19917;-93
2023/10/08 04:54:29;;;;;;;;;;;12.80;99.90;;;;;;4967736;28;19984;-93
2023/10/08 04:56:59;;;;;;;;;;;12.90;99.90;;;;;;4970176;28;19918;-93
2023/10/08 04:59:34;;;;;;;;;;;12.90;99.90;;;;;;4981477;28;19918;-93
2023/10/08 05:02:19;;;;;;;;;;;13.00;99.90;;;;;;4972069;28;19921;-94
2023/10/08 05:07:21;;;;;;;;;;;13.00;99.90;;;;;;4995755;28;19977;-93
2023/10/08 05:10:10;;;;;;;;;;;13.00;99.90;;;;;;5002920;28;19935;-94
2023/10/08 05:13:30;;;;;;;;;;;13.00;99.90;;;;;;4986177;28;20373;-93
2023/10/08 05:15:33;;;;;;;;;;;13.00;99.90;;;;;;4995984;28;20703;-93
2023/10/08 05:18:12;;;;;;;;;;;12.90;99.90;;;;;;4984712;28;19917;-94
2023/10/08 05:25:58;;;;;;;;;;;12.70;99.90;;;;;;5018059;28;19921;-94
2023/10/08 05:28:24;;;;;;;;;;;12.90;99.90;;;;;;4988054;28;19917;-94
2023/10/08 05:30:55;;;;;;;;;;;12.90;99.90;;;;;;4999631;28;19917;-93
2023/10/08 05:33:44;;;;;;;;;;;12.90;99.90;;;;;;5001528;28;19921;-94
2023/10/08 05:36:18;;;;;;;;;;;12.50;99.90;;;;;;4992024;28;20358;-93
2023/10/08 05:38:59;;;;;;;;;;;12.80;99.90;;;;;;4983746;28;19951;-94
2023/10/08 05:41:28;;;;;;;;;;;12.80;99.90;;;;;;4992039;28;20248;-93
2023/10/08 05:52:50;;;;;;;;;;;12.80;99.90;;;;;;5015421;28;19917;-94
2023/10/08 05:55:22;;;;;;;;;;;12.80;99.90;;;;;;4998385;28;19963;-94
2023/10/08 05:57:46;;;;;;;;;;;12.80;99.90;;;;;;4991864;28;19917;-94
2023/10/08 06:18:25;;;;;;;;;;;12.60;99.90;;;;;;5020427;28;19917;-93
2023/10/08 06:21:00;;;;;;;;;;;12.70;99.90;;;;;;4999344;28;19921;-94
2023/10/08 06:23:28;;;;;;;;;;;12.70;99.90;;;;;;4996311;28;19917;-93
2023/10/08 06:25:56;;;;;;;;;;;12.90;99.90;;;;;;5010407;28;19917;-94
2023/10/08 06:28:25;;;;;;;;;;;12.60;99.90;;;;;;4999235;28;19918;-94
2023/10/08 06:30:55;;;;;;;;;;;12.60;99.90;;;;;;4997803;28;20007;-94
2023/10/08 06:33:22;;;;;;;;;;;12.30;99.90;;;;;;5001108;28;19917;-95
2023/10/08 06:36:02;;;;;;;;;;;12.60;99.90;;;;;;5000636;28;19967;-94
2023/10/08 06:38:30;;;;;;;;;;;12.30;99.90;;;;;;4998121;28;20361;-94
2023/10/08 06:41:15;;;;;;;;;;;12.70;99.90;;;;;;4993475;28;19918;-94
2023/10/08 06:43:44;;;;;;;;;;;12.70;99.90;;;;;;4997592;28;20001;-94
2023/10/08 06:46:12;;;;;;;;;;;12.80;99.90;;;;;;5001537;28;20276;-94
2023/10/08 06:48:41;;;;;;;;;;;12.90;99.90;;;;;;5002415;28;20332;-95
2023/10/08 06:51:13;;;;;;;;;;;12.90;99.90;;;;;;5002881;28;19921;-94
2023/10/08 06:53:44;;;;;;;;;;;13.00;99.90;;;;;;5004785;28;19921;-94
2023/10/08 06:56:19;;;;;;;;;;;13.00;99.90;;;;;;5009891;28;19963;-94
2023/10/08 06:58:46;;;;;;;;;;;13.40;99.90;;;;;;4999724;28;19928;-94
2023/10/08 07:01:20;;;;;;;;;;;13.10;99.90;;;;;;4999671;28;20384;-95
2023/10/08 07:03:49;;;;;;;;;;;13.20;99.90;;;;;;5000288;28;19921;-94
2023/10/08 07:06:25;;;;;;;;;;;12.50;99.90;;;;;;4998703;28;19917;-93
2023/10/08 07:08:54;;;;;;;;;;;13.30;99.90;;;;;;4999152;28;19924;-94
2023/10/08 07:11:20;;;;;;;;;;;13.50;99.90;;;;;;5000092;28;20016;-95
2023/10/08 07:13:46;;;;;;;;;;;13.50;99.90;;;;;;4999847;28;19928;-94
2023/10/08 07:16:12;;;;;;;;;;;13.50;99.90;;;;;;4981009;28;19917;-94
2023/10/08 07:18:38;;;;;;;;;;;13.50;99.90;;;;;;4997808;28;20244;-94
2023/10/08 07:21:12;;;;;;;;;;;13.50;99.90;;;;;;4976122;28;19984;-94
2023/10/08 07:23:56;;;;;;;;;;;12.70;99.90;;;;;;4973186;28;19917;-94
2023/10/08 07:26:37;;;;;;;;;;;13.50;99.90;;;;;;4992869;28;20207;-94
2023/10/08 07:29:09;;;;;;;;;;;12.70;99.90;;;;;;4984599;28;20345;-95
2023/10/08 07:31:36;;;;;;;;;;;13.50;99.90;;;;;;4974900;28;20000;-94
2023/10/08 07:34:36;;;;;;;;;;;13.40;99.90;;;;;;4971062;28;19976;-95
2023/10/08 07:36:57;;;;;;;;;;;13.50;99.90;;;;;;4998593;28;19917;-94
2023/10/08 07:39:26;;;;;;;;;;;12.70;99.90;;;;;;4972011;28;19941;-93
2023/10/08 07:42:30;;;;;;;;;;;13.50;99.90;;;;;;4975062;28;20380;-95
2023/10/08 07:44:55;;;;;;;;;;;13.50;99.90;;;;;;4991268;28;19952;-94
2023/10/08 07:47:21;;;;;;;;;;;13.40;99.90;;;;;;4971578;28;20455;-94
2023/10/08 07:49:47;;;;;;;;;;;13.40;99.90;;;;;;4987434;28;19921;-95
2023/10/08 07:52:16;;;;;;;;;;;13.40;99.90;;;;;;4990371;28;19929;-95
2023/10/08 07:54:41;;;;;;;;;;;13.50;99.90;;;;;;4995265;28;19929;-94
2023/10/08 07:57:17;;;;;;;;;;;13.50;99.90;;;;;;4990694;28;19972;-94
2023/10/08 07:59:54;;;;;;;;;;;13.50;99.90;;;;;;4975287;28;20430;-94
2023/10/08 08:02:31;;;;;;;;;;;13.60;99.90;;;;;;4984431;28;19928;-94
2023/10/08 08:05:21;;;;;;;;;;;13.60;99.90;;;;;;4975530;28;20331;-94
2023/10/08 08:07:56;;;;;;;;;;;13.80;99.90;;;;;;4990007;28;19953;-93
2023/10/08 08:10:23;;;;;;;;;;;14.20;99.90;;;;;;4975919;28;19932;-94
2023/10/08 08:13:00;;;;;;;;;;;14.40;99.90;;;;;;4997608;28;19917;-94
2023/10/08 08:15:50;;;;;;;;;;;;;;;;;;;;;
2023/10/08 08:18:58;;;;;;;;;;;;;;;;;;;;;
2023/10/08 08:21:25;;;;;;;;;;;14.30;99.90;;;;;;4935617;28;20268;-96
2023/10/08 08:24:04;;;;;;;;;;;14.30;99.90;;;;;;4991339;28;19932;-94
2023/10/08 08:26:39;;;;;;;;;;;14.40;99.90;;;;;;4984703;28;20367;-94
2023/10/08 08:29:08;;;;;;;;;;;14.40;99.90;;;;;;4986560;28;19928;-94
2023/10/08 08:31:48;;;;;;;;;;;14.40;99.90;;;;;;4998499;28;19917;-94
2023/10/08 08:34:19;;;;;;;;;;;14.40;99.90;;;;;;4981940;28;19921;-94
2023/10/08 08:36:48;;;;;;;;;;;14.30;99.90;;;;;;4995003;28;20390;-96
2023/10/08 08:39:28;;;;;;;;;;;14.30;99.90;;;;;;4995791;28;19967;-95
2023/10/08 08:42:04;;;;;;;;;;;14.30;99.90;;;;;;4986614;28;20000;-91
2023/10/08 08:44:31;;;;;;;;;;;14.00;99.90;;;;;;4980634;28;19967;-93
2023/10/08 08:47:04;;;;;;;;;;;14.30;99.90;;;;;;4982673;28;19917;-92
2023/10/08 08:49:34;;;;;;;;;;;14.30;99.90;;;;;;4972964;28;19986;-93
2023/10/08 08:52:00;;;;;;;;;;;14.30;99.90;;;;;;4985735;28;19980;-91
2023/10/08 08:54:32;;;;;;;;;;;14.40;99.90;;;;;;4999965;28;19928;-92
2023/10/08 08:57:02;;;;;;;;;;;14.50;99.90;;;;;;4969272;28;19917;-91
2023/10/08 08:59:30;;;;;;;;;;;14.50;99.90;;;;;;4990791;28;19970;-92
2023/10/08 09:02:01;;;;;;;;;;;14.60;99.90;;;;;;4974413;28;20368;-92
2023/10/08 09:04:30;;;;;;;;;;;14.80;99.90;;;;;;4977851;28;19917;-91
2023/10/08 09:06:56;;;;;;;;;;;14.60;99.90;;;;;;4980929;28;19972;-91
2023/10/08 09:09:22;;;;;;;;;;;15.00;99.90;;;;;;5010449;28;20324;-91
2023/10/08 09:11:57;;;;;;;;;;;15.00;99.90;;;;;;4976451;28;19925;-92
2023/10/08 09:14:25;;;;;;;;;;;15.00;99.90;;;;;;4996490;28;20362;-91
2023/10/08 09:16:51;;;;;;;;;;;;;;;;;;4978802;28;19921;-93
2023/10/08 09:23:06;;;;;;;;;;;15.40;99.90;;;;;;5005365;28;19963;-94
2023/10/08 09:25:35;;;;;;;;;;;15.60;99.90;;;;;;4986421;28;19925;-92
2023/10/08 09:28:04;;;;;;;;;;;15.60;99.90;;;;;;4992532;28;20356;-93
2023/10/08 09:30:29;;;;;;;;;;;16.10;99.90;;;;;;4983440;28;19917;-94
2023/10/08 09:32:58;;;;;;;;;;;15.70;99.90;;;;;;4989962;28;20332;-94
2023/10/08 09:35:27;;;;;;;;;;;16.20;99.90;;;;;;4985661;28;19925;-94
2023/10/08 09:38:11;;;;;;;;;;;16.20;99.90;;;;;;4990329;28;19917;-94
2023/10/08 09:44:10;;;;;;;;;;;16.10;99.90;;;;;;4988468;28;19964;-95
2023/10/08 09:50:37;;;;;;;;;;;15.90;99.90;;;;;;4998166;28;19996;-94
2023/10/08 09:53:27;;;;;;;;;;;15.90;99.90;;;;;;4988718;28;19917;-95
2023/10/08 09:59:24;;;;;;;;;;;16.00;99.90;;;;;;5009393;28;19916;-94
2023/10/08 10:01:50;;;;;;;;;;;15.90;99.90;;;;;;4984296;28;20415;-95
2023/10/08 10:04:24;;;;;;;;;;;15.80;99.90;;;;;;4987669;28;19928;-95
2023/10/08 10:07:01;;;;;;;;;;;15.80;99.90;;;;;;4991174;28;20026;-95
2023/10/08 10:09:27;;;;;;;;;;;15.70;99.90;;;;;;4994472;28;19921;-95
2023/10/08 10:11:54;;;;;;;;;;;15.60;99.90;;;;;;4996129;28;20379;-95
2023/10/08 10:14:23;;;;;;;;;;;15.60;99.90;;;;;;5000745;28;19927;-95
2023/10/08 10:17:25;;;;;;;;;;;15.70;99.90;;;;;;4978821;28;19917;-95
2023/10/08 10:19:59;;;;;;;;;;;15.70;99.90;;;;;;4883960;29;19923;-94
2023/10/08 10:22:29;;;;;;;;;;;15.60;99.90;;;;;;4982242;28;20374;-95
2023/10/08 10:24:56;;;;;;;;;;;15.60;99.90;;;;;;4984341;28;19922;-95
2023/10/08 10:27:22;;;;;;;;;;;15.60;99.90;;;;;;4994558;28;19924;-95
2023/10/08 10:29:48;;;;;;;;;;;15.50;99.90;;;;;;4975698;28;19917;-94
2023/10/08 10:32:18;;;;;;;;;;;15.60;99.90;;;;;;4992347;28;19924;-95
2023/10/08 10:34:49;;;;;;;;;;;15.60;99.90;;;;;;4991033;28;19968;-95
2023/10/08 10:37:19;;;;;;;;;;;15.70;99.90;;;;;;4969537;28;19928;-95
2023/10/08 10:40:00;;;;;;;;;;;15.80;99.90;;;;;;4992261;28;19928;-94
2023/10/08 10:42:28;;;;;;;;;;;15.90;99.90;;;;;;4985527;28;20602;-95
2023/10/08 10:44:55;;;;;;;;;;;16.10;99.90;;;;;;4999736;28;19925;-95
2023/10/08 10:57:43;;;;;;;;;;;16.40;99.90;;;;;;5014073;28;19925;-94
2023/10/08 11:02:59;;;;;;;;;;;16.00;99.90;;;;;;5014942;28;20272;-94
2023/10/08 11:05:36;;;;;;;;;;;15.80;99.90;;;;;;4978542;28;19921;-95
2023/10/08 11:08:06;;;;;;;;;;;15.80;99.90;;;;;;4998338;28;19950;-95
2023/10/08 11:10:33;;;;;;;;;;;15.70;99.90;;;;;;4996957;28;19966;-95
2023/10/08 11:13:01;;;;;;;;;;;15.70;99.90;;;;;;4998459;28;19932;-94
2023/10/08 11:15:37;;;;;;;;;;;15.60;99.90;;;;;;4982326;28;19977;-94
2023/10/08 11:18:10;;;;;;;;;;;15.70;99.90;;;;;;4996472;28;19924;-95
2023/10/08 11:20:39;;;;;;;;;;;15.60;99.90;;;;;;4980470;28;20005;-94
2023/10/08 11:23:52;;;;;;;;;;;15.60;99.90;;;;;;4987996;28;19995;-94
2023/10/08 11:27:07;;;;;;;;;;;15.90;99.90;;;;;;4998468;28;20015;-94
2023/10/08 11:36:42;;;;;;;;;;;15.80;99.90;;;;;;4973716;28;20197;-93
2023/10/08 11:39:21;;;;;;;;;;;15.80;99.90;;;;;;4967494;28;20025;-94
2023/10/08 11:42:16;;;;;;;;;;;15.40;99.90;;;;;;4952103;28;19918;-93
2023/10/08 11:44:43;;;;;;;;;;;16.00;99.90;;;;;;4955393;28;19921;-92
2023/10/08 11:47:13;;;;;;;;;;;16.00;99.90;;;;;;4940569;28;19925;-93
2023/10/08 11:49:46;;;;;;;;;;;16.00;99.90;;;;;;4940035;28;19968;-94
2023/10/08 11:52:15;;;;;;;;;;;16.00;99.90;;;;;;4963687;28;19948;-92
2023/10/08 11:54:42;;;;;;;;;;;16.00;99.90;;;;;;4965945;28;19926;-94
2023/10/08 11:57:11;;;;;;;;;;;16.00;99.90;;;;;;4954363;28;19917;-94
2023/10/08 11:59:39;;;;;;;;;;;16.10;99.90;;;;;;4957767;28;19921;-93
2023/10/08 12:02:08;;;;;;;;;;;16.10;99.90;;;;;;4944974;28;20378;-93
2023/10/08 12:04:36;;;;;;;;;;;16.20;99.90;;;;;;4984094;28;19916;-93
2023/10/08 12:07:07;;;;;;;;;;;16.30;99.90;;;;;;4967403;28;19917;-93
2023/10/08 12:09:37;;;;;;;;;;;16.30;99.90;;;;;;4989793;28;19925;-93
2023/10/08 12:15:38;;;;;;;;;;;16.30;99.90;;;;;;5013339;28;19921;-94
2023/10/08 12:18:15;;;;;;;;;;;16.40;99.90;;;;;;4989452;28;20285;-93
2023/10/08 12:20:47;;;;;;;;;;;16.50;99.90;;;;;;4982538;28;19994;-93
2023/10/08 12:23:24;;;;;;;;;;;16.00;99.90;;;;;;4974011;28;19931;-94
2023/10/08 12:26:03;;;;;;;;;;;16.50;99.90;;;;;;5009876;28;19925;-95
2023/10/08 12:28:34;;;;;;;;;;;16.50;99.90;;;;;;4991335;28;19917;-95
2023/10/08 12:31:09;;;;;;;;;;;16.40;99.90;;;;;;4987744;28;19999;-94
2023/10/08 12:33:40;;;;;;;;;;;16.60;99.90;;;;;;4992758;28;19968;-94
2023/10/08 12:36:11;;;;;;;;;;;16.70;99.90;;;;;;4970188;28;19921;-95
2023/10/08 12:38:38;;;;;;;;;;;16.80;99.90;;;;;;4988824;28;19936;-95
2023/10/08 12:41:13;;;;;;;;;;;16.80;99.90;;;;;;4992875;28;19924;-94
2023/10/08 12:43:53;;;;;;;;;;;16.80;99.90;;;;;;4982527;28;19921;-95
2023/10/08 12:46:23;;;;;;;;;;;16.90;99.90;;;;;;4975162;28;20372;-94
2023/10/08 12:52:47;;;;;;;;;;;16.70;99.90;;;;;;5020525;28;19924;-94
2023/10/08 12:55:18;;;;;;;;;;;16.30;99.90;;;;;;4972688;28;19925;-96
2023/10/08 12:57:55;;;;;;;;;;;16.30;99.90;;;;;;4990818;28;20318;-94
2023/10/08 13:00:23;;;;;;;;;;;16.70;99.90;;;;;;4986633;28;19918;-94
2023/10/08 13:02:53;;;;;;;;;;;16.60;99.90;;;;;;4981932;28;19924;-93
2023/10/08 13:05:27;;;;;;;;;;;16.50;99.90;;;;;;4985184;28;20357;-95
2023/10/08 13:08:34;;;;;;;;;;;16.40;99.90;;;;;;5002707;28;19921;-95
2023/10/08 13:14:23;;;;;;;;;;;;;;;;;;;;;
2023/10/08 13:21:03;;;;;;;;;;;16.30;99.90;;;;;;4938839;28;19993;-96
2023/10/08 13:24:02;;;;;;;;;;;16.40;99.90;;;;;;4982540;28;20155;-94
2023/10/08 13:27:06;;;;;;;;;;;16.30;99.90;;;;;;4957422;28;19918;-96
2023/10/08 13:30:08;;;;;;;;;;;;;;;;;;;;;
2023/10/08 13:33:05;;;;;;;;;;;16.40;99.90;;;;;;4970013;28;20154;-96
2023/10/08 13:36:25;;;;;;;;;;;16.40;99.90;;;;;;4984911;28;19980;-96
2023/10/08 13:45:40;;;;;;;;;;;;;;;;;;;;;
2023/10/08 13:51:33;;;;;;;;;;;16.30;99.90;;;;;;4999206;28;19980;-95
2023/10/08 13:57:19;;;;;;;;;;;16.80;99.90;;;;;;5000990;28;19918;-95
2023/10/08 14:00:15;;;;;;;;;;;16.50;99.90;;;;;;4984570;28;19929;-95
2023/10/08 14:03:07;;;;;;;;;;;15.90;99.90;;;;;;4998334;28;19957;-96
2023/10/08 14:05:48;;;;;;;;;;;16.30;99.90;;;;;;4985069;28;19921;-95
2023/10/08 14:08:19;;;;;;;;;;;16.30;99.90;;;;;;4985476;28;19922;-93
2023/10/08 14:10:48;;;;;;;;;;;16.20;99.90;;;;;;4988770;28;19932;-93
2023/10/08 14:13:19;;;;;;;;;;;15.90;99.90;;;;;;4992657;28;20007;-93
2023/10/08 14:15:55;;;;;;;;;;;16.20;99.90;;;;;;4973697;28;19925;-94
2023/10/08 14:18:28;;;;;;;;;;;16.10;99.90;;;;;;4982436;28;20254;-95
2023/10/08 14:20:57;;;;;;;;;;;16.70;99.90;;;;;;4984726;28;19917;-93
2023/10/08 14:29:17;;;;;;;;;;;16.00;99.90;;;;;;5237718;23;19921;-90
2023/10/08 14:31:48;;;;;;;;;;;15.60;99.90;;;;;;5009290;28;19928;-89
2023/10/08 14:45:13;;;;;;;;;;;15.80;99.90;;;;;;5014660;28;19917;-88
2023/10/08 14:47:39;;;;;;;;;;;15.80;99.90;;;;;;5013248;28;19998;-89
2023/10/08 14:50:05;;;;;;;;;;;15.80;99.90;;;;;;5015652;28;20063;-89
2023/10/08 14:52:31;;;;;;;;;;;15.80;99.90;;;;;;4996393;28;19925;-92
2023/10/08 14:54:57;;;;;;;;;;;15.70;99.90;;;;;;5000692;28;19917;-91
2023/10/08 14:57:24;;;;;;;;;;;15.70;99.90;;;;;;5016517;28;19925;-89
2023/10/08 14:59:51;;;;;;;;;;;15.60;99.90;;;;;;5001977;28;19917;-90
2023/10/08 15:02:17;;;;;;;;;;;15.60;99.90;;;;;;4996044;28;19921;-91
2023/10/08 15:04:44;;;;;;;;;;;15.60;99.90;;;;;;4999529;28;19924;-91
2023/10/08 15:07:11;;;;;;;;;;;15.60;99.90;;;;;;5017146;28;19923;-90
2023/10/08 15:09:37;;;;;;;;;;;15.50;99.90;;;;;;5016784;28;19971;-91
2023/10/08 15:12:03;;;;;;;;;;;15.40;99.90;;;;;;5017663;28;19921;-89
2023/10/08 15:14:28;;;;;;;;;;;15.40;99.90;;;;;;5001922;28;19925;-90
2023/10/08 15:16:55;;;;;;;;;;;15.30;99.90;;;;;;5011329;28;19918;-88
2023/10/08 15:19:21;;;;;;;;;;;15.30;99.90;;;;;;4997996;28;19924;-94
2023/10/08 15:21:50;;;;;;;;;;;15.30;99.90;;;;;;5019704;28;19917;-91
2023/10/08 15:24:21;;;;;;;;;;;15.20;99.90;;;;;;5017618;28;20656;-88
2023/10/08 15:26:55;;;;;;;;;;;15.20;99.90;;;;;;4996394;28;19966;-90
2023/10/08 15:29:26;;;;;;;;;;;15.20;99.90;;;;;;5018900;28;19968;-91
2023/10/08 15:31:55;;;;;;;;;;;15.20;99.90;;;;;;5000709;28;19921;-87
2023/10/08 15:34:21;;;;;;;;;;;15.10;99.90;;;;;;5038937;28;19917;-89
2023/10/08 15:36:46;;;;;;;;;;;15.10;99.90;;;;;;5028421;28;19940;-90
2023/10/08 15:39:12;;;;;;;;;;;15.10;99.90;;;;;;4997342;28;19918;-91
2023/10/08 15:41:38;;;;;;;;;;;15.00;99.90;;;;;;5017707;28;19928;-90
2023/10/08 15:44:05;;;;;;;;;;;15.00;99.90;;;;;;5033373;28;19917;-91
2023/10/08 15:46:34;;;;;;;;;;;15.00;99.90;;;;;;5017541;28;20364;-96
2023/10/08 15:49:02;;;;;;;;;;;15.00;99.90;;;;;;4981635;28;19917;-92
2023/10/08 15:51:31;;;;;;;;;;;15.00;99.90;;;;;;4989402;28;19920;-92
2023/10/08 15:53:58;;;;;;;;;;;15.00;99.90;;;;;;5003737;28;20383;-91
2023/10/08 15:56:26;;;;;;;;;;;15.00;99.90;;;;;;4999464;28;20000;-92
2023/10/08 15:58:52;;;;;;;;;;;15.00;99.90;;;;;;5018395;28;19917;-92
2023/10/08 16:01:17;;;;;;;;;;;15.00;99.90;;;;;;5017609;28;19917;-93
2023/10/08 16:03:43;;;;;;;;;;;15.00;99.90;;;;;;5017594;28;20012;-92
2023/10/08 16:06:09;;;;;;;;;;;14.90;99.90;;;;;;5017435;28;19921;-90
2023/10/08 16:08:35;;;;;;;;;;;14.90;99.90;;;;;;5025103;28;19971;-90
2023/10/08 16:11:00;;;;;;;;;;;14.90;99.90;;;;;;4987268;28;19917;-91
2023/10/08 16:13:26;;;;;;;;;;;14.90;99.90;;;;;;4994731;28;20612;-90
2023/10/08 16:15:52;;;;;;;;;;;14.80;99.90;;;;;;5013736;28;20403;-91
2023/10/08 16:18:17;;;;;;;;;;;14.80;99.90;;;;;;5017243;28;19924;-91
2023/10/08 16:20:43;;;;;;;;;;;14.70;99.90;;;;;;4998704;28;19917;-90
2023/10/08 16:23:10;;;;;;;;;;;14.80;99.90;;;;;;5017455;28;19979;-88
2023/10/08 16:25:35;;;;;;;;;;;14.70;99.90;;;;;;5008069;28;19923;-89
2023/10/08 16:28:03;;;;;;;;;;;14.70;99.90;;;;;;5013714;28;20295;-90
2023/10/08 16:30:32;;;;;;;;;;;14.60;99.90;;;;;;5000184;28;19921;-92
2023/10/08 16:32:58;;;;;;;;;;;14.60;99.90;;;;;;5008180;28;19921;-91
2023/10/08 16:35:24;;;;;;;;;;;14.10;99.90;;;;;;5014467;28;19921;-94
2023/10/08 16:37:50;;;;;;;;;;;14.50;99.90;;;;;;5015450;28;19924;-89
2023/10/08 16:40:16;;;;;;;;;;;14.40;99.90;;;;;;5006523;28;20008;-92
2023/10/08 16:42:41;;;;;;;;;;;14.50;99.90;;;;;;5011139;28;20050;-89
2023/10/08 16:45:07;;;;;;;;;;;14.40;99.90;;;;;;5005522;28;20387;-91
2023/10/08 16:47:33;;;;;;;;;;;14.40;99.90;;;;;;5009454;28;19917;-90